< Typhoon 200614 2006 Season Typhoon 200616 >
Typhoon 200615 (XANGSANE)
General InformationTrack Information on Google MapsDetailed Wind InformationAccess Analytics MapList of All Images || NewsDisaster Info.WeblogTrackbackTyphoon FrontResourceGoogle EarthGE AnimationAtom FeedGeoJSON
Detalied Best Track (Time Zone = UTC)
Year Month Day Hour Lat. Long. Pressure (hPa) Wind (kt) Class Image Chart
2006 9 25 00 11.8 129.1 1008 0 2 Image Chart
2006 9 25 06 11.8 128.8 1006 0 2 Image Chart
2006 9 25 12 11.8 128.4 1004 0 2 Image Chart
2006 9 25 18 11.9 128.1 1002 0 2 Image Chart
2006 9 26 00 11.9 127.6 1000 35 3 Image Chart
2006 9 26 06 12.0 127.2 985 50 4 Image Chart
2006 9 26 12 12.2 126.8 975 60 4 Image Chart
2006 9 26 18 12.3 126.1 970 65 5 Image Chart
2006 9 27 00 12.5 125.5 960 75 5 Image Chart
2006 9 27 06 12.9 124.6 940 85 5 Image Chart
2006 9 27 12 13.2 123.6 950 75 5 Image Chart
2006 9 27 18 13.6 122.7 960 70 5 Image Chart
2006 9 28 00 13.9 121.7 970 65 5 Image Chart
2006 9 28 06 14.6 120.4 975 60 4 Image Chart
2006 9 28 12 15.2 119.3 975 60 4 Image Chart
2006 9 28 18 15.0 118.0 965 65 5 Image Chart
2006 9 29 00 15.3 116.8 960 70 5 Image Chart
2006 9 29 06 15.6 115.7 960 75 5 Image Chart
2006 9 29 12 15.7 114.5 955 75 5 Image Chart
2006 9 29 18 15.6 113.3 950 80 5 Image Chart
2006 9 30 00 15.6 112.5 950 80 5 Image Chart
2006 9 30 06 15.7 111.6 950 80 5 Image Chart
2006 9 30 12 16.0 110.7 960 75 5 Image Chart
2006 9 30 18 16.0 109.7 965 75 5 Image Chart
2006 10 1 00 16.1 108.6 965 70 5 Image Chart
2006 10 1 06 15.6 107.4 970 65 5 Image Chart
2006 10 1 12 15.4 106.4 980 55 4 Image Chart
2006 10 1 18 15.7 105.5 996 40 3 Image Chart
2006 10 2 00 15.7 104.4 1000 0 2 Image Chart
2006 10 2 06 15.7 104.1 1000 0 2 Image Chart
2006 10 2 12 15.8 103.8 1002 0 2 Image Chart
Japan Meteorological Agency Best Track Data | Correction Date : 2006-11-22
< Typhoon 200614 2006 Season Typhoon 200616 >

Help